sensor_id;sensor_type;location;lat;lon;timestamp;P1;durP1;ratioP1;P2;durP2;ratioP2
35518;SDS011;21627;48.216;16.482;2023-04-05T00:00:36;8.43;;;5.30;;
35518;SDS011;21627;48.216;16.482;2023-04-05T00:03:04;10.13;;;5.63;;
35518;SDS011;21627;48.216;16.482;2023-04-05T00:05:32;11.87;;;5.80;;
35518;SDS011;21627;48.216;16.482;2023-04-05T00:08:00;12.07;;;5.63;;
35518;SDS011;21627;48.216;16.482;2023-04-05T00:10:29;11.00;;;5.30;;
35518;SDS011;21627;48.216;16.482;2023-04-05T00:12:57;8.83;;;5.30;;
35518;SDS011;21627;48.216;16.482;2023-04-05T00:15:26;11.00;;;6.03;;
35518;SDS011;21627;48.216;16.482;2023-04-05T00:17:53;8.83;;;5.13;;
35518;SDS011;21627;48.216;16.482;2023-04-05T00:20:21;7.53;;;5.30;;
35518;SDS011;21627;48.216;16.482;2023-04-05T00:22:49;11.17;;;5.73;;
35518;SDS011;21627;48.216;16.482;2023-04-05T00:25:16;16.40;;;6.10;;
35518;SDS011;21627;48.216;16.482;2023-04-05T00:27:44;11.17;;;5.37;;
35518;SDS011;21627;48.216;16.482;2023-04-05T00:30:11;11.37;;;5.60;;
35518;SDS011;21627;48.216;16.482;2023-04-05T00:32:40;12.30;;;6.20;;
35518;SDS011;21627;48.216;16.482;2023-04-05T00:35:07;12.00;;;5.53;;
35518;SDS011;21627;48.216;16.482;2023-04-05T00:37:35;8.27;;;5.63;;
35518;SDS011;21627;48.216;16.482;2023-04-05T00:40:02;9.57;;;5.47;;
35518;SDS011;21627;48.216;16.482;2023-04-05T00:42:30;10.93;;;5.80;;
35518;SDS011;21627;48.216;16.482;2023-04-05T00:44:57;10.53;;;5.27;;
35518;SDS011;21627;48.216;16.482;2023-04-05T00:47:24;15.83;;;5.73;;
35518;SDS011;21627;48.216;16.482;2023-04-05T00:49:51;10.20;;;5.67;;
35518;SDS011;21627;48.216;16.482;2023-04-05T00:52:18;10.63;;;6.33;;
35518;SDS011;21627;48.216;16.482;2023-04-05T00:54:48;11.10;;;5.30;;
35518;SDS011;21627;48.216;16.482;2023-04-05T00:57:17;9.47;;;5.40;;
35518;SDS011;21627;48.216;16.482;2023-04-05T00:59:44;11.57;;;5.83;;
35518;SDS011;21627;48.216;16.482;2023-04-05T01:02:47;11.57;;;5.33;;
35518;SDS011;21627;48.216;16.482;2023-04-05T01:05:29;15.17;;;5.50;;
35518;SDS011;21627;48.216;16.482;2023-04-05T01:08:06;15.23;;;5.77;;
35518;SDS011;21627;48.216;16.482;2023-04-05T01:10:39;10.23;;;5.93;;
35518;SDS011;21627;48.216;16.482;2023-04-05T01:13:15;11.47;;;5.70;;
35518;SDS011;21627;48.216;16.482;2023-04-05T01:15:42;15.73;;;5.63;;
35518;SDS011;21627;48.216;16.482;2023-04-05T01:18:10;12.03;;;6.00;;
35518;SDS011;21627;48.216;16.482;2023-04-05T01:20:41;10.20;;;5.70;;
35518;SDS011;21627;48.216;16.482;2023-04-05T01:26:14;14.23;;;6.87;;
35518;SDS011;21627;48.216;16.482;2023-04-05T01:34:47;10.03;;;5.57;;
35518;SDS011;21627;48.216;16.482;2023-04-05T01:37:35;9.77;;;5.93;;
35518;SDS011;21627;48.216;16.482;2023-04-05T01:40:04;9.50;;;5.53;;
35518;SDS011;21627;48.216;16.482;2023-04-05T01:42:33;14.27;;;5.60;;
35518;SDS011;21627;48.216;16.482;2023-04-05T01:45:01;9.13;;;5.83;;
35518;SDS011;21627;48.216;16.482;2023-04-05T01:47:29;14.17;;;6.33;;
35518;SDS011;21627;48.216;16.482;2023-04-05T01:49:56;9.37;;;5.87;;
35518;SDS011;21627;48.216;16.482;2023-04-05T01:52:23;11.43;;;5.60;;
35518;SDS011;21627;48.216;16.482;2023-04-05T01:54:50;8.40;;;5.57;;
35518;SDS011;21627;48.216;16.482;2023-04-05T01:57:17;11.67;;;5.63;;
35518;SDS011;21627;48.216;16.482;2023-04-05T01:59:44;12.70;;;5.57;;
35518;SDS011;21627;48.216;16.482;2023-04-05T02:02:11;11.60;;;5.90;;
35518;SDS011;21627;48.216;16.482;2023-04-05T02:04:38;8.60;;;5.40;;
35518;SDS011;21627;48.216;16.482;2023-04-05T02:07:05;17.97;;;6.37;;
35518;SDS011;21627;48.216;16.482;2023-04-05T02:09:33;9.93;;;5.70;;
35518;SDS011;21627;48.216;16.482;2023-04-05T02:12:00;9.80;;;5.70;;
35518;SDS011;21627;48.216;16.482;2023-04-05T02:14:27;10.03;;;5.40;;
35518;SDS011;21627;48.216;16.482;2023-04-05T02:16:54;12.03;;;6.07;;
35518;SDS011;21627;48.216;16.482;2023-04-05T02:19:22;10.87;;;5.70;;
35518;SDS011;21627;48.216;16.482;2023-04-05T02:21:49;12.80;;;6.37;;
35518;SDS011;21627;48.216;16.482;2023-04-05T02:24:19;9.50;;;5.80;;
35518;SDS011;21627;48.216;16.482;2023-04-05T02:26:47;11.70;;;6.37;;
35518;SDS011;21627;48.216;16.482;2023-04-05T02:29:14;11.37;;;5.97;;
35518;SDS011;21627;48.216;16.482;2023-04-05T02:31:41;13.50;;;6.43;;
35518;SDS011;21627;48.216;16.482;2023-04-05T02:34:08;14.80;;;6.93;;
35518;SDS011;21627;48.216;16.482;2023-04-05T02:36:36;10.57;;;5.70;;
35518;SDS011;21627;48.216;16.482;2023-04-05T02:39:04;12.43;;;5.73;;
35518;SDS011;21627;48.216;16.482;2023-04-05T02:41:31;8.80;;;5.67;;
35518;SDS011;21627;48.216;16.482;2023-04-05T02:43:58;10.33;;;5.90;;
35518;SDS011;21627;48.216;16.482;2023-04-05T02:46:25;10.17;;;6.23;;
35518;SDS011;21627;48.216;16.482;2023-04-05T02:48:52;9.73;;;6.20;;
35518;SDS011;21627;48.216;16.482;2023-04-05T02:51:19;9.47;;;5.97;;
35518;SDS011;21627;48.216;16.482;2023-04-05T02:53:46;10.93;;;5.60;;
35518;SDS011;21627;48.216;16.482;2023-04-05T02:56:14;10.33;;;5.57;;
35518;SDS011;21627;48.216;16.482;2023-04-05T02:58:41;10.83;;;6.43;;
35518;SDS011;21627;48.216;16.482;2023-04-05T03:01:08;14.33;;;6.47;;
35518;SDS011;21627;48.216;16.482;2023-04-05T03:03:35;10.43;;;5.63;;
35518;SDS011;21627;48.216;16.482;2023-04-05T03:06:04;9.83;;;5.80;;
35518;SDS011;21627;48.216;16.482;2023-04-05T03:08:39;11.93;;;6.32;;
35518;SDS011;21627;48.216;16.482;2023-04-05T03:11:11;14.00;;;6.10;;
35518;SDS011;21627;48.216;16.482;2023-04-05T03:13:39;8.60;;;5.93;;
35518;SDS011;21627;48.216;16.482;2023-04-05T03:16:06;11.30;;;6.00;;
35518;SDS011;21627;48.216;16.482;2023-04-05T03:18:33;12.63;;;6.20;;
35518;SDS011;21627;48.216;16.482;2023-04-05T03:21:01;11.27;;;5.90;;
35518;SDS011;21627;48.216;16.482;2023-04-05T03:23:30;12.10;;;6.00;;
35518;SDS011;21627;48.216;16.482;2023-04-05T03:25:59;9.90;;;5.23;;
35518;SDS011;21627;48.216;16.482;2023-04-05T03:28:27;11.43;;;6.23;;
35518;SDS011;21627;48.216;16.482;2023-04-05T03:30:57;10.87;;;5.87;;
35518;SDS011;21627;48.216;16.482;2023-04-05T03:33:25;19.60;;;6.33;;
35518;SDS011;21627;48.216;16.482;2023-04-05T03:35:52;11.20;;;5.47;;
35518;SDS011;21627;48.216;16.482;2023-04-05T03:38:19;13.67;;;6.30;;
35518;SDS011;21627;48.216;16.482;2023-04-05T03:40:46;10.77;;;6.00;;
35518;SDS011;21627;48.216;16.482;2023-04-05T03:43:13;10.03;;;5.07;;
35518;SDS011;21627;48.216;16.482;2023-04-05T03:45:41;10.90;;;6.23;;
35518;SDS011;21627;48.216;16.482;2023-04-05T03:48:08;13.13;;;6.00;;
35518;SDS011;21627;48.216;16.482;2023-04-05T03:50:36;10.33;;;6.10;;
35518;SDS011;21627;48.216;16.482;2023-04-05T03:53:03;12.87;;;6.30;;
35518;SDS011;21627;48.216;16.482;2023-04-05T03:55:30;12.07;;;5.97;;
35518;SDS011;21627;48.216;16.482;2023-04-05T03:57:57;16.50;;;5.80;;
35518;SDS011;21627;48.216;16.482;2023-04-05T04:00:24;13.40;;;6.00;;
35518;SDS011;21627;48.216;16.482;2023-04-05T04:02:51;12.10;;;5.90;;
35518;SDS011;21627;48.216;16.482;2023-04-05T04:05:19;10.87;;;5.67;;
35518;SDS011;21627;48.216;16.482;2023-04-05T04:07:47;16.13;;;6.50;;
35518;SDS011;21627;48.216;16.482;2023-04-05T04:10:15;12.90;;;5.53;;
35518;SDS011;21627;48.216;16.482;2023-04-05T04:12:43;10.17;;;5.53;;
35518;SDS011;21627;48.216;16.482;2023-04-05T04:15:11;10.43;;;5.80;;
35518;SDS011;21627;48.216;16.482;2023-04-05T04:17:38;9.17;;;5.27;;
35518;SDS011;21627;48.216;16.482;2023-04-05T04:20:06;10.00;;;5.97;;
35518;SDS011;21627;48.216;16.482;2023-04-05T04:22:36;14.67;;;5.83;;
35518;SDS011;21627;48.216;16.482;2023-04-05T04:25:09;12.50;;;5.77;;
35518;SDS011;21627;48.216;16.482;2023-04-05T04:27:38;10.60;;;6.03;;
35518;SDS011;21627;48.216;16.482;2023-04-05T04:30:08;13.13;;;6.13;;
35518;SDS011;21627;48.216;16.482;2023-04-05T04:32:38;12.40;;;5.90;;
35518;SDS011;21627;48.216;16.482;2023-04-05T04:35:23;10.00;;;5.47;;
35518;SDS011;21627;48.216;16.482;2023-04-05T04:37:56;11.07;;;5.90;;
35518;SDS011;21627;48.216;16.482;2023-04-05T04:40:29;10.87;;;5.60;;
35518;SDS011;21627;48.216;16.482;2023-04-05T04:43:05;12.60;;;6.00;;
35518;SDS011;21627;48.216;16.482;2023-04-05T04:45:43;11.00;;;6.77;;
35518;SDS011;21627;48.216;16.482;2023-04-05T04:48:15;13.73;;;5.97;;
35518;SDS011;21627;48.216;16.482;2023-04-05T04:50:43;13.23;;;6.10;;
35518;SDS011;21627;48.216;16.482;2023-04-05T04:53:11;11.00;;;6.13;;
35518;SDS011;21627;48.216;16.482;2023-04-05T04:55:39;13.10;;;5.37;;
35518;SDS011;21627;48.216;16.482;2023-04-05T04:58:09;13.80;;;5.73;;
35518;SDS011;21627;48.216;16.482;2023-04-05T05:00:38;8.73;;;5.50;;
35518;SDS011;21627;48.216;16.482;2023-04-05T05:03:10;10.77;;;5.40;;
35518;SDS011;21627;48.216;16.482;2023-04-05T05:05:41;15.73;;;5.60;;
35518;SDS011;21627;48.216;16.482;2023-04-05T05:08:15;12.37;;;5.30;;
35518;SDS011;21627;48.216;16.482;2023-04-05T05:10:49;10.97;;;5.40;;
35518;SDS011;21627;48.216;16.482;2023-04-05T05:13:20;11.53;;;5.70;;
35518;SDS011;21627;48.216;16.482;2023-04-05T05:15:47;11.20;;;6.20;;
35518;SDS011;21627;48.216;16.482;2023-04-05T05:18:14;11.07;;;5.83;;
35518;SDS011;21627;48.216;16.482;2023-04-05T05:20:42;14.83;;;6.40;;
35518;SDS011;21627;48.216;16.482;2023-04-05T05:23:09;16.20;;;6.20;;
35518;SDS011;21627;48.216;16.482;2023-04-05T05:25:36;9.93;;;5.47;;
35518;SDS011;21627;48.216;16.482;2023-04-05T05:28:04;12.63;;;5.67;;
35518;SDS011;21627;48.216;16.482;2023-04-05T05:30:31;9.90;;;4.93;;
35518;SDS011;21627;48.216;16.482;2023-04-05T05:32:58;8.63;;;5.00;;
35518;SDS011;21627;48.216;16.482;2023-04-05T05:35:26;13.00;;;5.40;;
35518;SDS011;21627;48.216;16.482;2023-04-05T05:37:54;13.50;;;4.97;;
35518;SDS011;21627;48.216;16.482;2023-04-05T05:40:21;9.20;;;5.33;;
35518;SDS011;21627;48.216;16.482;2023-04-05T05:42:48;22.10;;;5.90;;
35518;SDS011;21627;48.216;16.482;2023-04-05T05:45:15;10.67;;;5.33;;
35518;SDS011;21627;48.216;16.482;2023-04-05T05:47:42;9.93;;;4.73;;
35518;SDS011;21627;48.216;16.482;2023-04-05T05:50:09;10.80;;;5.50;;
35518;SDS011;21627;48.216;16.482;2023-04-05T05:52:37;9.43;;;4.60;;
35518;SDS011;21627;48.216;16.482;2023-04-05T05:55:04;13.50;;;5.67;;
35518;SDS011;21627;48.216;16.482;2023-04-05T05:57:32;11.80;;;5.00;;
35518;SDS011;21627;48.216;16.482;2023-04-05T05:59:59;8.90;;;5.50;;
35518;SDS011;21627;48.216;16.482;2023-04-05T06:02:26;13.13;;;4.83;;
35518;SDS011;21627;48.216;16.482;2023-04-05T06:04:54;13.47;;;5.03;;
35518;SDS011;21627;48.216;16.482;2023-04-05T06:07:21;7.43;;;4.37;;
35518;SDS011;21627;48.216;16.482;2023-04-05T06:09:48;5.67;;;4.13;;
35518;SDS011;21627;48.216;16.482;2023-04-05T06:12:15;8.00;;;4.77;;
35518;SDS011;21627;48.216;16.482;2023-04-05T06:14:42;13.03;;;4.70;;
35518;SDS011;21627;48.216;16.482;2023-04-05T06:17:12;8.70;;;5.30;;
35518;SDS011;21627;48.216;16.482;2023-04-05T06:19:39;10.87;;;4.97;;
35518;SDS011;21627;48.216;16.482;2023-04-05T06:22:06;11.37;;;5.20;;
35518;SDS011;21627;48.216;16.482;2023-04-05T06:24:34;13.10;;;4.90;;
35518;SDS011;21627;48.216;16.482;2023-04-05T06:27:01;9.40;;;5.20;;
35518;SDS011;21627;48.216;16.482;2023-04-05T06:29:28;9.90;;;4.67;;
35518;SDS011;21627;48.216;16.482;2023-04-05T06:31:56;15.53;;;5.13;;
35518;SDS011;21627;48.216;16.482;2023-04-05T06:34:23;9.43;;;4.97;;
35518;SDS011;21627;48.216;16.482;2023-04-05T06:36:51;11.67;;;4.27;;
35518;SDS011;21627;48.216;16.482;2023-04-05T06:39:18;9.90;;;4.90;;
35518;SDS011;21627;48.216;16.482;2023-04-05T06:41:45;16.20;;;4.53;;
35518;SDS011;21627;48.216;16.482;2023-04-05T06:44:12;8.70;;;4.43;;
35518;SDS011;21627;48.216;16.482;2023-04-05T06:46:39;19.53;;;4.73;;
35518;SDS011;21627;48.216;16.482;2023-04-05T06:49:06;8.03;;;4.50;;
35518;SDS011;21627;48.216;16.482;2023-04-05T06:51:33;7.57;;;4.20;;
35518;SDS011;21627;48.216;16.482;2023-04-05T06:54:00;10.73;;;4.50;;
35518;SDS011;21627;48.216;16.482;2023-04-05T06:56:27;8.43;;;4.50;;
35518;SDS011;21627;48.216;16.482;2023-04-05T06:58:55;7.93;;;4.23;;
35518;SDS011;21627;48.216;16.482;2023-04-05T07:01:24;8.27;;;4.60;;
35518;SDS011;21627;48.216;16.482;2023-04-05T07:03:52;11.60;;;5.03;;
35518;SDS011;21627;48.216;16.482;2023-04-05T07:06:19;13.13;;;5.10;;
35518;SDS011;21627;48.216;16.482;2023-04-05T07:08:49;7.80;;;4.40;;
35518;SDS011;21627;48.216;16.482;2023-04-05T07:11:17;12.80;;;4.47;;
35518;SDS011;21627;48.216;16.482;2023-04-05T07:13:44;7.80;;;4.20;;
35518;SDS011;21627;48.216;16.482;2023-04-05T07:16:11;12.40;;;4.50;;
35518;SDS011;21627;48.216;16.482;2023-04-05T07:18:38;12.93;;;4.07;;
35518;SDS011;21627;48.216;16.482;2023-04-05T07:21:05;14.00;;;4.80;;
35518;SDS011;21627;48.216;16.482;2023-04-05T07:23:33;10.27;;;4.60;;
35518;SDS011;21627;48.216;16.482;2023-04-05T07:26:00;9.43;;;4.70;;
35518;SDS011;21627;48.216;16.482;2023-04-05T07:28:31;12.33;;;4.50;;
35518;SDS011;21627;48.216;16.482;2023-04-05T07:30:59;7.10;;;4.57;;
35518;SDS011;21627;48.216;16.482;2023-04-05T07:33:30;12.37;;;4.60;;
35518;SDS011;21627;48.216;16.482;2023-04-05T07:35:58;8.67;;;4.00;;
35518;SDS011;21627;48.216;16.482;2023-04-05T07:38:25;9.80;;;4.33;;
35518;SDS011;21627;48.216;16.482;2023-04-05T07:40:54;15.57;;;4.70;;
35518;SDS011;21627;48.216;16.482;2023-04-05T07:43:21;7.72;;;4.13;;
35518;SDS011;21627;48.216;16.482;2023-04-05T07:45:50;10.67;;;4.10;;
35518;SDS011;21627;48.216;16.482;2023-04-05T07:48:19;14.20;;;4.80;;
35518;SDS011;21627;48.216;16.482;2023-04-05T07:50:46;7.20;;;4.00;;
35518;SDS011;21627;48.216;16.482;2023-04-05T07:53:14;9.40;;;4.28;;
35518;SDS011;21627;48.216;16.482;2023-04-05T07:55:41;9.93;;;4.20;;
35518;SDS011;21627;48.216;16.482;2023-04-05T07:58:08;7.97;;;3.95;;
35518;SDS011;21627;48.216;16.482;2023-04-05T08:00:36;9.63;;;4.72;;
35518;SDS011;21627;48.216;16.482;2023-04-05T08:03:04;8.13;;;4.10;;
35518;SDS011;21627;48.216;16.482;2023-04-05T08:05:31;8.85;;;3.72;;
35518;SDS011;21627;48.216;16.482;2023-04-05T08:07:59;8.80;;;4.03;;
35518;SDS011;21627;48.216;16.482;2023-04-05T08:10:26;6.43;;;3.25;;
35518;SDS011;21627;48.216;16.482;2023-04-05T08:12:53;12.57;;;4.45;;
35518;SDS011;21627;48.216;16.482;2023-04-05T08:15:20;9.13;;;4.07;;
35518;SDS011;21627;48.216;16.482;2023-04-05T08:17:47;13.95;;;4.32;;
35518;SDS011;21627;48.216;16.482;2023-04-05T08:20:14;8.73;;;3.47;;
35518;SDS011;21627;48.216;16.482;2023-04-05T08:22:41;11.45;;;4.15;;
35518;SDS011;21627;48.216;16.482;2023-04-05T08:25:09;10.07;;;3.90;;
35518;SDS011;21627;48.216;16.482;2023-04-05T08:27:36;8.18;;;3.92;;
35518;SDS011;21627;48.216;16.482;2023-04-05T08:30:03;10.15;;;3.95;;
35518;SDS011;21627;48.216;16.482;2023-04-05T08:32:31;12.25;;;3.97;;
35518;SDS011;21627;48.216;16.482;2023-04-05T08:35:00;9.15;;;4.20;;
35518;SDS011;21627;48.216;16.482;2023-04-05T08:37:27;9.27;;;4.00;;
35518;SDS011;21627;48.216;16.482;2023-04-05T08:39:57;9.80;;;4.10;;
35518;SDS011;21627;48.216;16.482;2023-04-05T08:42:28;8.10;;;3.85;;
35518;SDS011;21627;48.216;16.482;2023-04-05T08:45:02;9.45;;;4.13;;
35518;SDS011;21627;48.216;16.482;2023-04-05T08:47:30;9.88;;;3.90;;
35518;SDS011;21627;48.216;16.482;2023-04-05T08:50:02;12.65;;;5.30;;
35518;SDS011;21627;48.216;16.482;2023-04-05T08:52:30;10.98;;;4.57;;
35518;SDS011;21627;48.216;16.482;2023-04-05T08:54:58;11.82;;;4.15;;
35518;SDS011;21627;48.216;16.482;2023-04-05T08:57:26;7.78;;;3.45;;
35518;SDS011;21627;48.216;16.482;2023-04-05T08:59:56;7.50;;;3.70;;
35518;SDS011;21627;48.216;16.482;2023-04-05T09:02:26;5.07;;;3.45;;
35518;SDS011;21627;48.216;16.482;2023-04-05T09:04:55;9.30;;;3.90;;
35518;SDS011;21627;48.216;16.482;2023-04-05T09:07:23;10.50;;;3.45;;
35518;SDS011;21627;48.216;16.482;2023-04-05T09:09:54;13.73;;;4.40;;
35518;SDS011;21627;48.216;16.482;2023-04-05T09:12:26;9.68;;;3.13;;
35518;SDS011;21627;48.216;16.482;2023-04-05T09:14:54;9.77;;;3.30;;
35518;SDS011;21627;48.216;16.482;2023-04-05T09:17:22;6.43;;;3.65;;
35518;SDS011;21627;48.216;16.482;2023-04-05T09:19:49;6.82;;;3.83;;
35518;SDS011;21627;48.216;16.482;2023-04-05T09:22:18;17.52;;;3.72;;
35518;SDS011;21627;48.216;16.482;2023-04-05T09:24:48;6.80;;;3.85;;
35518;SDS011;21627;48.216;16.482;2023-04-05T09:27:16;8.80;;;4.43;;
35518;SDS011;21627;48.216;16.482;2023-04-05T09:29:46;7.93;;;3.95;;
35518;SDS011;21627;48.216;16.482;2023-04-05T09:32:15;7.03;;;3.70;;
35518;SDS011;21627;48.216;16.482;2023-04-05T09:34:44;6.70;;;3.88;;
35518;SDS011;21627;48.216;16.482;2023-04-05T09:37:19;8.52;;;3.85;;
35518;SDS011;21627;48.216;16.482;2023-04-05T09:39:48;7.63;;;3.42;;
35518;SDS011;21627;48.216;16.482;2023-04-05T09:42:18;7.35;;;3.78;;
35518;SDS011;21627;48.216;16.482;2023-04-05T09:47:24;6.47;;;4.03;;
35518;SDS011;21627;48.216;16.482;2023-04-05T09:49:57;6.43;;;3.25;;
35518;SDS011;21627;48.216;16.482;2023-04-05T09:52:28;6.80;;;3.42;;
35518;SDS011;21627;48.216;16.482;2023-04-05T09:54:58;11.32;;;4.07;;
35518;SDS011;21627;48.216;16.482;2023-04-05T09:57:28;9.25;;;3.35;;
35518;SDS011;21627;48.216;16.482;2023-04-05T10:00:04;7.28;;;3.40;;
35518;SDS011;21627;48.216;16.482;2023-04-05T10:02:42;5.68;;;2.85;;
35518;SDS011;21627;48.216;16.482;2023-04-05T10:05:09;5.50;;;2.83;;
35518;SDS011;21627;48.216;16.482;2023-04-05T10:07:39;7.90;;;2.92;;
35518;SDS011;21627;48.216;16.482;2023-04-05T10:10:08;11.63;;;3.10;;
35518;SDS011;21627;48.216;16.482;2023-04-05T10:12:38;4.95;;;2.30;;
35518;SDS011;21627;48.216;16.482;2023-04-05T10:15:07;6.15;;;2.78;;
35518;SDS011;21627;48.216;16.482;2023-04-05T10:20:23;6.65;;;2.80;;
35518;SDS011;21627;48.216;16.482;2023-04-05T10:23:00;7.10;;;2.60;;
35518;SDS011;21627;48.216;16.482;2023-04-05T10:36:48;5.93;;;2.65;;
35518;SDS011;21627;48.216;16.482;2023-04-05T10:39:22;5.43;;;2.50;;
35518;SDS011;21627;48.216;16.482;2023-04-05T10:41:59;5.03;;;2.58;;
35518;SDS011;21627;48.216;16.482;2023-04-05T10:44:39;5.45;;;2.35;;
35518;SDS011;21627;48.216;16.482;2023-04-05T10:47:08;7.32;;;2.60;;
35518;SDS011;21627;48.216;16.482;2023-04-05T10:49:42;5.30;;;2.80;;
35518;SDS011;21627;48.216;16.482;2023-04-05T10:52:15;7.32;;;2.53;;
35518;SDS011;21627;48.216;16.482;2023-04-05T10:54:43;3.90;;;2.17;;
35518;SDS011;21627;48.216;16.482;2023-04-05T10:57:10;3.55;;;2.38;;
35518;SDS011;21627;48.216;16.482;2023-04-05T10:59:39;5.88;;;2.55;;
35518;SDS011;21627;48.216;16.482;2023-04-05T11:02:12;5.15;;;2.53;;
35518;SDS011;21627;48.216;16.482;2023-04-05T11:04:40;4.72;;;2.35;;
35518;SDS011;21627;48.216;16.482;2023-04-05T11:07:15;4.30;;;2.30;;
35518;SDS011;21627;48.216;16.482;2023-04-05T11:12:18;9.73;;;2.95;;
35518;SDS011;21627;48.216;16.482;2023-04-05T11:14:45;6.85;;;2.30;;
35518;SDS011;21627;48.216;16.482;2023-04-05T11:17:25;4.72;;;2.20;;
35518;SDS011;21627;48.216;16.482;2023-04-05T11:20:00;6.78;;;2.63;;
35518;SDS011;21627;48.216;16.482;2023-04-05T11:22:31;6.63;;;2.65;;
35518;SDS011;21627;48.216;16.482;2023-04-05T11:24:59;5.63;;;2.28;;
35518;SDS011;21627;48.216;16.482;2023-04-05T11:29:58;5.45;;;2.63;;
35518;SDS011;21627;48.216;16.482;2023-04-05T11:32:45;4.90;;;2.40;;
35518;SDS011;21627;48.216;16.482;2023-04-05T11:35:16;5.33;;;2.40;;
35518;SDS011;21627;48.216;16.482;2023-04-05T11:37:54;8.98;;;2.47;;
35518;SDS011;21627;48.216;16.482;2023-04-05T11:40:29;6.57;;;2.88;;
35518;SDS011;21627;48.216;16.482;2023-04-05T11:43:06;8.10;;;2.70;;
35518;SDS011;21627;48.216;16.482;2023-04-05T11:45:38;7.57;;;2.70;;
35518;SDS011;21627;48.216;16.482;2023-04-05T11:48:10;6.57;;;2.60;;
35518;SDS011;21627;48.216;16.482;2023-04-05T11:50:39;5.05;;;2.50;;
35518;SDS011;21627;48.216;16.482;2023-04-05T11:53:11;7.30;;;2.92;;
35518;SDS011;21627;48.216;16.482;2023-04-05T11:55:44;10.35;;;2.70;;
35518;SDS011;21627;48.216;16.482;2023-04-05T11:58:14;5.65;;;2.67;;
35518;SDS011;21627;48.216;16.482;2023-04-05T12:00:44;10.15;;;2.65;;
35518;SDS011;21627;48.216;16.482;2023-04-05T12:03:12;7.85;;;2.97;;
35518;SDS011;21627;48.216;16.482;2023-04-05T12:05:44;5.72;;;2.58;;
35518;SDS011;21627;48.216;16.482;2023-04-05T12:08:13;6.25;;;3.10;;
35518;SDS011;21627;48.216;16.482;2023-04-05T12:10:41;6.40;;;2.75;;
35518;SDS011;21627;48.216;16.482;2023-04-05T12:13:08;8.75;;;2.78;;
35518;SDS011;21627;48.216;16.482;2023-04-05T12:15:36;4.72;;;2.47;;
35518;SDS011;21627;48.216;16.482;2023-04-05T12:18:11;7.05;;;2.95;;
35518;SDS011;21627;48.216;16.482;2023-04-05T12:20:40;5.38;;;2.30;;
35518;SDS011;21627;48.216;16.482;2023-04-05T12:23:11;4.20;;;2.50;;
35518;SDS011;21627;48.216;16.482;2023-04-05T12:25:38;5.60;;;2.40;;
35518;SDS011;21627;48.216;16.482;2023-04-05T12:28:08;5.28;;;2.33;;
35518;SDS011;21627;48.216;16.482;2023-04-05T12:30:46;7.35;;;2.78;;
35518;SDS011;21627;48.216;16.482;2023-04-05T12:33:28;5.53;;;2.45;;
35518;SDS011;21627;48.216;16.482;2023-04-05T12:35:58;7.55;;;2.72;;
35518;SDS011;21627;48.216;16.482;2023-04-05T12:38:31;4.88;;;2.40;;
35518;SDS011;21627;48.216;16.482;2023-04-05T12:40:59;4.45;;;2.10;;
35518;SDS011;21627;48.216;16.482;2023-04-05T12:43:41;5.40;;;2.85;;
35518;SDS011;21627;48.216;16.482;2023-04-05T12:46:09;5.22;;;2.47;;
35518;SDS011;21627;48.216;16.482;2023-04-05T12:48:41;15.23;;;2.60;;
35518;SDS011;21627;48.216;16.482;2023-04-05T12:51:15;3.30;;;2.03;;
35518;SDS011;21627;48.216;16.482;2023-04-05T12:53:46;6.50;;;2.30;;
35518;SDS011;21627;48.216;16.482;2023-04-05T12:56:16;4.90;;;2.28;;
35518;SDS011;21627;48.216;16.482;2023-04-05T12:58:43;6.60;;;2.55;;
35518;SDS011;21627;48.216;16.482;2023-04-05T13:01:17;7.70;;;2.40;;
35518;SDS011;21627;48.216;16.482;2023-04-05T13:03:44;4.30;;;2.47;;
35518;SDS011;21627;48.216;16.482;2023-04-05T13:06:15;5.95;;;2.83;;
35518;SDS011;21627;48.216;16.482;2023-04-05T13:08:42;9.80;;;2.47;;
35518;SDS011;21627;48.216;16.482;2023-04-05T13:11:09;11.82;;;2.58;;
35518;SDS011;21627;48.216;16.482;2023-04-05T13:13:36;4.82;;;2.20;;
35518;SDS011;21627;48.216;16.482;2023-04-05T13:16:04;5.72;;;2.33;;
35518;SDS011;21627;48.216;16.482;2023-04-05T13:18:34;4.93;;;2.20;;
35518;SDS011;21627;48.216;16.482;2023-04-05T13:21:01;4.20;;;2.33;;
35518;SDS011;21627;48.216;16.482;2023-04-05T13:23:34;7.05;;;2.30;;
35518;SDS011;21627;48.216;16.482;2023-04-05T13:26:04;5.20;;;2.63;;
35518;SDS011;21627;48.216;16.482;2023-04-05T13:28:32;4.10;;;2.55;;
35518;SDS011;21627;48.216;16.482;2023-04-05T13:31:01;9.55;;;2.28;;
35518;SDS011;21627;48.216;16.482;2023-04-05T13:33:31;6.90;;;1.98;;
35518;SDS011;21627;48.216;16.482;2023-04-05T13:36:01;7.88;;;2.85;;
35518;SDS011;21627;48.216;16.482;2023-04-05T13:38:29;4.70;;;2.35;;
35518;SDS011;21627;48.216;16.482;2023-04-05T13:40:56;5.88;;;2.88;;
35518;SDS011;21627;48.216;16.482;2023-04-05T13:43:23;5.07;;;2.38;;
35518;SDS011;21627;48.216;16.482;2023-04-05T13:45:54;4.97;;;2.03;;
35518;SDS011;21627;48.216;16.482;2023-04-05T13:48:21;7.13;;;2.53;;
35518;SDS011;21627;48.216;16.482;2023-04-05T13:50:48;4.85;;;2.60;;
35518;SDS011;21627;48.216;16.482;2023-04-05T13:53:15;4.38;;;2.33;;
35518;SDS011;21627;48.216;16.482;2023-04-05T13:55:42;4.15;;;2.30;;
35518;SDS011;21627;48.216;16.482;2023-04-05T13:58:09;4.97;;;2.38;;
35518;SDS011;21627;48.216;16.482;2023-04-05T14:00:37;7.60;;;2.50;;
35518;SDS011;21627;48.216;16.482;2023-04-05T14:03:05;4.30;;;2.17;;
35518;SDS011;21627;48.216;16.482;2023-04-05T14:05:32;5.53;;;2.20;;
35518;SDS011;21627;48.216;16.482;2023-04-05T14:08:00;5.50;;;2.80;;
35518;SDS011;21627;48.216;16.482;2023-04-05T14:10:27;6.00;;;2.47;;
35518;SDS011;21627;48.216;16.482;2023-04-05T14:12:56;4.22;;;2.60;;
35518;SDS011;21627;48.216;16.482;2023-04-05T14:15:23;4.55;;;2.33;;
35518;SDS011;21627;48.216;16.482;2023-04-05T14:17:51;4.60;;;2.30;;
35518;SDS011;21627;48.216;16.482;2023-04-05T14:20:18;3.88;;;2.20;;
35518;SDS011;21627;48.216;16.482;2023-04-05T14:22:45;7.65;;;2.40;;
35518;SDS011;21627;48.216;16.482;2023-04-05T14:25:12;3.40;;;2.13;;
35518;SDS011;21627;48.216;16.482;2023-04-05T14:27:40;6.38;;;2.50;;
35518;SDS011;21627;48.216;16.482;2023-04-05T14:30:08;3.00;;;1.83;;
35518;SDS011;21627;48.216;16.482;2023-04-05T14:32:36;4.55;;;1.90;;
35518;SDS011;21627;48.216;16.482;2023-04-05T14:35:04;4.97;;;2.40;;
35518;SDS011;21627;48.216;16.482;2023-04-05T14:37:31;4.18;;;2.17;;
35518;SDS011;21627;48.216;16.482;2023-04-05T14:39:59;5.50;;;2.40;;
35518;SDS011;21627;48.216;16.482;2023-04-05T14:42:29;4.30;;;2.33;;
35518;SDS011;21627;48.216;16.482;2023-04-05T14:45:14;12.30;;;2.93;;
35518;SDS011;21627;48.216;16.482;2023-04-05T14:47:41;4.93;;;2.60;;
35518;SDS011;21627;48.216;16.482;2023-04-05T14:50:08;10.63;;;2.97;;
35518;SDS011;21627;48.216;16.482;2023-04-05T14:52:36;5.47;;;2.25;;
35518;SDS011;21627;48.216;16.482;2023-04-05T14:55:05;9.10;;;2.28;;
35518;SDS011;21627;48.216;16.482;2023-04-05T14:57:33;6.13;;;2.78;;
35518;SDS011;21627;48.216;16.482;2023-04-05T15:00:00;11.38;;;2.65;;
35518;SDS011;21627;48.216;16.482;2023-04-05T15:02:27;4.88;;;2.45;;
35518;SDS011;21627;48.216;16.482;2023-04-05T15:04:54;6.13;;;2.63;;
35518;SDS011;21627;48.216;16.482;2023-04-05T15:07:26;8.85;;;3.05;;
35518;SDS011;21627;48.216;16.482;2023-04-05T15:09:54;7.80;;;3.15;;